Time;durP1;ratioP1;P1;durP2;ratioP2;P2;SDS_P1;SDS_P2;PMS_P1;PMS_P2;Temp;Humidity;BMP_temperature;BMP_pressure;BME280_temperature;BME280_humidity;BME280_pressure;Samples;Min_cycle;Max_cycle;Signal;HPM_P1;HPM_P2
2023/08/21 00:01:15;;;;;;;11.83;10.80;;;22.40;99.90;;;;;;5099877;28;20189;-77
2023/08/21 00:03:41;;;;;;;11.07;9.97;;;22.40;99.90;;;;;;5117975;28;20728;-77
2023/08/21 00:06:07;;;;;;;12.53;11.33;;;22.40;99.90;;;;;;5117965;28;20177;-76
2023/08/21 00:08:32;;;;;;;12.10;10.90;;;22.40;99.90;;;;;;5118325;28;20182;-76
2023/08/21 00:10:58;;;;;;;10.83;9.93;;;22.40;99.90;;;;;;5117798;28;20206;-76
2023/08/21 00:13:24;;;;;;;11.73;10.52;;;22.40;99.90;;;;;;5120928;28;20178;-78
2023/08/21 00:15:50;;;;;;;11.60;10.52;;;22.50;99.90;;;;;;5135990;28;20178;-77
2023/08/21 00:18:15;;;;;;;11.47;10.43;;;22.40;99.90;;;;;;5132742;28;20185;-79
2023/08/21 00:20:42;;;;;;;11.87;10.67;;;22.40;99.90;;;;;;5118501;28;20184;-78
2023/08/21 00:23:08;;;;;;;11.23;10.18;;;22.40;99.90;;;;;;5117507;28;20202;-77
2023/08/21 00:25:35;;;;;;;11.23;10.23;;;22.30;99.90;;;;;;5128330;27;20158;-81
2023/08/21 00:28:01;;;;;;;10.67;9.67;;;22.20;99.90;;;;;;5132452;27;20178;-76
2023/08/21 00:30:27;;;;;;;10.53;9.60;;;22.10;99.90;;;;;;5117632;28;20181;-75
2023/08/21 00:32:52;;;;;;;12.47;9.90;;;22.00;99.90;;;;;;5099870;28;20262;-76
2023/08/21 00:35:18;;;;;;;10.77;9.77;;;21.20;99.90;;;;;;5118423;28;20177;-75
2023/08/21 00:37:44;;;;;;;10.80;9.80;;;21.80;99.90;;;;;;5117542;28;20177;-76
2023/08/21 00:40:10;;;;;;;11.83;10.73;;;21.80;99.90;;;;;;5118344;28;20185;-76
2023/08/21 00:42:36;;;;;;;11.60;10.60;;;21.80;99.90;;;;;;5119473;28;20280;-76
2023/08/21 00:45:03;;;;;;;11.60;10.40;;;21.80;99.90;;;;;;5117657;28;20692;-77
2023/08/21 00:47:29;;;;;;;11.40;10.27;;;21.70;99.90;;;;;;5119201;28;20174;-80
2023/08/21 00:49:55;;;;;;;12.23;11.00;;;21.80;99.90;;;;;;5118076;28;20178;-77
2023/08/21 00:52:21;;;;;;;12.13;11.03;;;21.90;99.90;;;;;;5098865;28;20196;-77
2023/08/21 00:54:47;;;;;;;13.40;11.13;;;22.00;99.90;;;;;;5117460;28;20177;-77
2023/08/21 00:57:14;;;;;;;12.10;11.00;;;22.00;99.90;;;;;;5117431;28;20231;-76
2023/08/21 00:59:40;;;;;;;12.23;11.13;;;22.00;99.90;;;;;;5120089;28;20536;-77
2023/08/21 01:02:06;;;;;;;12.10;11.00;;;22.10;99.90;;;;;;5115581;28;20386;-77
2023/08/21 01:04:32;;;;;;;12.37;11.23;;;22.10;99.90;;;;;;5120582;28;20701;-76
2023/08/21 01:06:58;;;;;;;12.73;11.50;;;22.10;99.90;;;;;;5097601;28;20185;-80
2023/08/21 01:09:23;;;;;;;12.10;11.00;;;22.10;99.90;;;;;;5117110;28;20234;-76
2023/08/21 01:12:30;;;;;;;11.53;10.47;;;22.10;99.90;;;;;;5117784;28;20697;-77
2023/08/21 01:15:03;;;;;;;11.83;10.83;;;22.10;99.90;;;;;;5034139;28;20639;-77
2023/08/21 01:17:35;;;;;;;11.90;10.67;;;22.10;99.90;;;;;;5033896;28;20176;-76
2023/08/21 01:20:02;;;;;;;12.77;11.30;;;22.10;99.90;;;;;;5033748;28;20191;-76
2023/08/21 01:22:36;;;;;;;12.17;10.83;;;22.10;99.90;;;;;;5038592;28;20259;-76
2023/08/21 01:25:03;;;;;;;11.60;10.60;;;22.10;99.90;;;;;;5037380;28;20242;-78
2023/08/21 01:27:28;;;;;;;10.80;9.90;;;22.20;99.90;;;;;;5045932;28;20180;-79
2023/08/21 01:29:55;;;;;;;11.93;10.83;;;22.10;99.90;;;;;;5036269;28;20272;-76
2023/08/21 01:33:00;;;;;;;12.00;10.90;;;22.10;99.90;;;;;;5036691;28;20181;-77
2023/08/21 01:35:29;;;;;;;11.53;10.33;;;22.10;99.90;;;;;;5017152;28;20195;-77
2023/08/21 01:37:56;;;;;;;11.67;10.67;;;22.10;99.90;;;;;;5037989;28;20290;-78
2023/08/21 01:40:23;;;;;;;11.57;10.57;;;22.10;99.90;;;;;;5036420;28;20177;-80
2023/08/21 01:42:48;;;;;;;12.13;10.60;;;22.10;99.90;;;;;;5033134;28;20208;-76
2023/08/21 01:45:14;;;;;;;12.17;10.87;;;22.10;99.90;;;;;;5033391;28;20667;-79
2023/08/21 01:47:40;;;;;;;12.13;10.87;;;22.10;99.90;;;;;;5033178;28;20636;-77
2023/08/21 01:50:06;;;;;;;11.60;10.50;;;22.10;99.90;;;;;;5095527;28;20193;-77
2023/08/21 01:52:32;;;;;;;11.10;10.10;;;22.10;99.90;;;;;;5089118;28;20619;-77
2023/08/21 01:54:58;;;;;;;12.47;11.17;;;22.10;99.90;;;;;;5109405;28;20190;-76
2023/08/21 01:57:24;;;;;;;12.37;11.13;;;22.10;99.90;;;;;;5095812;28;20652;-77
2023/08/21 01:59:50;;;;;;;12.37;11.17;;;22.10;99.90;;;;;;5095464;28;20182;-79
2023/08/21 02:02:16;;;;;;;11.80;10.70;;;22.10;99.90;;;;;;5095279;28;20513;-78
2023/08/21 02:04:42;;;;;;;11.53;10.53;;;22.10;99.90;;;;;;5095757;28;20198;-80
2023/08/21 02:07:07;;;;;;;11.27;10.17;;;22.10;99.90;;;;;;5103030;28;20240;-77
2023/08/21 02:09:33;;;;;;;11.80;10.70;;;22.10;99.90;;;;;;5096591;28;20186;-78
2023/08/21 02:11:59;;;;;;;12.03;10.93;;;22.10;99.90;;;;;;5103858;28;20178;-76
2023/08/21 02:14:25;;;;;;;11.93;10.83;;;22.00;99.90;;;;;;5095674;28;20237;-76
2023/08/21 02:16:51;;;;;;;12.50;10.90;;;22.00;99.90;;;;;;5114127;28;20174;-77
2023/08/21 02:19:16;;;;;;;11.40;10.23;;;22.00;99.90;;;;;;5099995;28;20221;-77
2023/08/21 02:21:42;;;;;;;12.80;11.13;;;22.10;99.90;;;;;;5105954;28;20228;-76
2023/08/21 02:24:08;;;;;;;11.67;10.57;;;22.10;99.90;;;;;;5115598;28;20214;-78
2023/08/21 02:26:34;;;;;;;13.17;10.57;;;22.00;99.90;;;;;;5115370;28;20178;-77
2023/08/21 02:28:59;;;;;;;11.80;10.67;;;22.00;99.90;;;;;;5115376;28;20177;-80
2023/08/21 02:31:25;;;;;;;11.70;10.60;;;22.00;99.90;;;;;;5115405;28;20651;-78
2023/08/21 02:33:51;;;;;;;11.77;10.57;;;22.00;99.90;;;;;;5097169;28;20186;-77
2023/08/21 02:36:17;;;;;;;11.40;10.40;;;22.00;99.90;;;;;;5115336;28;20178;-77
2023/08/21 02:38:42;;;;;;;11.90;10.80;;;21.90;99.90;;;;;;5114928;28;20227;-75
2023/08/21 02:41:08;;;;;;;12.40;11.10;;;22.00;99.90;;;;;;5115754;28;20527;-79
2023/08/21 02:43:34;;;;;;;12.13;11.03;;;22.00;99.90;;;;;;5115065;28;20214;-78
2023/08/21 02:46:00;;;;;;;11.77;10.70;;;22.00;99.90;;;;;;5115780;28;20178;-78
2023/08/21 02:48:26;;;;;;;11.10;10.17;;;22.00;99.90;;;;;;5113627;28;20199;-77
2023/08/21 02:50:51;;;;;;;12.53;11.33;;;21.90;99.90;;;;;;5115414;28;20178;-76
2023/08/21 02:53:17;;;;;;;14.00;11.47;;;21.90;99.90;;;;;;5114063;28;20178;-77
2023/08/21 02:55:43;;;;;;;12.07;10.87;;;21.80;99.90;;;;;;5114291;28;20651;-77
2023/08/21 02:58:09;;;;;;;12.37;10.97;;;21.80;99.90;;;;;;5096145;28;20276;-77
2023/08/21 03:00:35;;;;;;;12.10;11.10;;;21.80;99.90;;;;;;5100105;28;20773;-77
2023/08/21 03:03:01;;;;;;;12.03;10.83;;;21.90;99.90;;;;;;5112389;28;20189;-77
2023/08/21 03:05:27;;;;;;;12.30;11.13;;;21.80;99.90;;;;;;5114257;28;20196;-76
2023/08/21 03:07:53;;;;;;;11.80;10.70;;;21.90;99.90;;;;;;5114157;28;20177;-77
2023/08/21 03:10:19;;;;;;;12.33;11.13;;;21.90;99.90;;;;;;5114066;28;20209;-77
2023/08/21 03:12:45;;;;;;;11.17;10.17;;;21.80;99.90;;;;;;5113817;28;20565;-76
2023/08/21 03:15:11;;;;;;;11.27;10.27;;;21.70;99.90;;;;;;5114110;28;20189;-76
2023/08/21 03:17:36;;;;;;;13.03;10.90;;;21.70;99.90;;;;;;5114012;28;20182;-76
2023/08/21 03:20:05;;;;;;;12.20;11.10;;;21.70;99.90;;;;;;5113884;28;20220;-76
2023/08/21 03:22:34;;;;;;;11.93;10.83;;;21.80;99.90;;;;;;5113587;28;20230;-77
2023/08/21 03:25:00;;;;;;;12.17;11.07;;;21.70;99.90;;;;;;5114141;28;20275;-77
2023/08/21 03:27:25;;;;;;;12.23;11.13;;;21.70;99.90;;;;;;5113710;28;20178;-76
2023/08/21 03:29:51;;;;;;;11.87;10.63;;;21.70;99.90;;;;;;5114178;28;20182;-78
2023/08/21 03:32:17;;;;;;;13.20;11.47;;;21.70;99.90;;;;;;5134652;27;20273;-76
2023/08/21 03:34:43;;;;;;;12.33;11.20;;;21.70;99.90;;;;;;5118274;28;20185;-76
2023/08/21 03:37:09;;;;;;;11.57;10.47;;;21.70;99.90;;;;;;5118127;28;20174;-77
2023/08/21 03:39:35;;;;;;;12.30;11.10;;;21.70;99.90;;;;;;5113628;28;20546;-77
2023/08/21 03:42:01;;;;;;;11.83;10.70;;;21.70;99.90;;;;;;5120467;28;20165;-77
2023/08/21 03:44:27;;;;;;;11.57;10.57;;;21.70;99.90;;;;;;5133181;28;20217;-77
2023/08/21 03:46:52;;;;;;;12.07;10.97;;;21.70;99.90;;;;;;5118389;28;20502;-76
2023/08/21 03:49:18;;;;;;;12.67;11.37;;;21.60;99.90;;;;;;5116472;28;20260;-77
2023/08/21 03:51:44;;;;;;;12.67;11.37;;;21.70;99.90;;;;;;5113842;28;20200;-76
2023/08/21 03:54:10;;;;;;;12.73;11.13;;;21.60;99.90;;;;;;5113556;28;20261;-79
2023/08/21 03:56:36;;;;;;;12.03;10.93;;;21.60;99.90;;;;;;5114127;28;20567;-77
2023/08/21 03:59:02;;;;;;;12.40;11.20;;;21.60;99.90;;;;;;5113350;28;20227;-77
2023/08/21 04:01:28;;;;;;;11.97;10.80;;;21.60;99.90;;;;;;5095798;28;20617;-77
2023/08/21 04:03:54;;;;;;;12.27;11.00;;;21.60;99.90;;;;;;5113549;28;20209;-76
2023/08/21 04:06:20;;;;;;;15.03;10.80;;;21.60;99.90;;;;;;5113703;28;20170;-77
2023/08/21 04:08:46;;;;;;;12.30;11.13;;;21.60;99.90;;;;;;5113389;28;20174;-76
2023/08/21 04:11:11;;;;;;;12.67;11.37;;;21.60;99.90;;;;;;5113456;28;20166;-77
2023/08/21 04:13:37;;;;;;;11.90;10.80;;;21.60;99.90;;;;;;5095084;28;20192;-76
2023/08/21 04:16:03;;;;;;;12.33;11.13;;;21.60;99.90;;;;;;5112753;28;20190;-76
2023/08/21 04:18:29;;;;;;;12.50;10.83;;;21.60;99.90;;;;;;5113414;28;20641;-78
2023/08/21 04:20:54;;;;;;;11.90;10.70;;;21.60;99.90;;;;;;5112915;28;20229;-77
2023/08/21 04:23:20;;;;;;;11.60;10.40;;;21.60;99.90;;;;;;5112933;28;20201;-76
2023/08/21 04:25:46;;;;;;;13.90;11.67;;;21.60;99.90;;;;;;5113258;28;20209;-77
2023/08/21 04:28:12;;;;;;;11.97;10.77;;;21.60;99.90;;;;;;5112854;28;20182;-78
2023/08/21 04:30:41;;;;;;;11.53;10.43;;;21.60;99.90;;;;;;5113443;28;20532;-76
2023/08/21 04:33:07;;;;;;;12.93;11.17;;;21.60;99.90;;;;;;5117305;28;20165;-76
2023/08/21 04:35:39;;;;;;;11.53;10.33;;;21.60;99.90;;;;;;5124904;28;20209;-77
2023/08/21 04:38:05;;;;;;;12.55;11.00;;;21.60;99.90;;;;;;5118063;28;20190;-77
2023/08/21 04:40:31;;;;;;;12.87;10.77;;;21.60;99.90;;;;;;5114551;28;20224;-77
2023/08/21 04:42:56;;;;;;;12.30;11.10;;;21.60;99.90;;;;;;5116430;28;20239;-78
2023/08/21 04:45:22;;;;;;;15.53;11.30;;;21.60;99.90;;;;;;5118845;28;20174;-75
2023/08/21 04:47:48;;;;;;;12.97;10.33;;;21.70;99.90;;;;;;5116924;28;20259;-77
2023/08/21 04:50:15;;;;;;;13.60;11.00;;;21.70;99.90;;;;;;5117149;28;20652;-77
2023/08/21 04:52:41;;;;;;;11.70;10.60;;;21.70;99.90;;;;;;5116889;28;20196;-78
2023/08/21 04:55:07;;;;;;;12.23;10.23;;;21.70;99.90;;;;;;5118969;28;20185;-76
2023/08/21 04:57:34;;;;;;;11.70;10.60;;;21.70;99.90;;;;;;5120940;28;20181;-79
2023/08/21 05:00:00;;;;;;;11.53;10.43;;;21.80;99.90;;;;;;5122154;28;20192;-77
2023/08/21 05:02:26;;;;;;;11.93;10.73;;;21.80;99.90;;;;;;5121343;28;20170;-76
2023/08/21 05:04:51;;;;;;;11.77;10.57;;;21.80;99.90;;;;;;5126755;28;20220;-76
2023/08/21 05:07:17;;;;;;;10.40;9.40;;;21.90;99.90;;;;;;5136104;28;20174;-79
2023/08/21 05:09:43;;;;;;;11.63;10.53;;;21.90;99.90;;;;;;5136527;27;20166;-78
2023/08/21 05:12:09;;;;;;;11.83;10.63;;;22.00;99.90;;;;;;5124402;28;20170;-77
2023/08/21 05:14:34;;;;;;;13.37;10.40;;;21.90;99.90;;;;;;5116547;28;20182;-78
2023/08/21 05:17:00;;;;;;;14.50;10.57;;;22.00;99.90;;;;;;5115238;28;20190;-76
2023/08/21 05:19:26;;;;;;;13.03;9.87;;;22.00;99.90;;;;;;5116948;28;20185;-76
2023/08/21 05:21:52;;;;;;;11.53;10.43;;;22.00;99.90;;;;;;5122883;28;20225;-74
2023/08/21 05:24:17;;;;;;;11.07;9.98;;;22.10;99.90;;;;;;5125217;28;20213;-77
2023/08/21 05:26:43;;;;;;;10.57;9.60;;;22.10;99.90;;;;;;5117377;28;20233;-77
2023/08/21 05:29:09;;;;;;;12.10;9.98;;;22.10;99.90;;;;;;5135900;28;20645;-76
2023/08/21 05:31:35;;;;;;;10.53;9.63;;;22.20;99.90;;;;;;5121724;28;20170;-79
2023/08/21 05:34:01;;;;;;;11.25;10.15;;;22.20;99.90;;;;;;5115961;28;20688;-77
2023/08/21 05:36:26;;;;;;;11.05;9.95;;;22.20;99.90;;;;;;5115660;28;20269;-78
2023/08/21 05:38:53;;;;;;;10.73;9.77;;;22.20;99.90;;;;;;5116715;28;20186;-78
2023/08/21 05:41:18;;;;;;;10.33;9.40;;;22.30;99.90;;;;;;5116655;28;20181;-77
2023/08/21 05:43:45;;;;;;;12.13;10.32;;;22.30;99.90;;;;;;5126426;28;20239;-77
2023/08/21 05:46:11;;;;;;;11.18;10.05;;;22.30;99.90;;;;;;5134586;28;20679;-78
2023/08/21 05:48:37;;;;;;;11.25;10.25;;;22.40;99.90;;;;;;5136525;28;20185;-80
2023/08/21 05:51:03;;;;;;;11.02;9.93;;;22.50;99.90;;;;;;5138483;28;20182;-78
2023/08/21 05:53:29;;;;;;;11.60;10.52;;;22.50;99.90;;;;;;5137989;27;20232;-77
2023/08/21 05:55:55;;;;;;;11.32;10.30;;;22.60;99.90;;;;;;5138559;28;20216;-78
2023/08/21 05:58:20;;;;;;;11.65;10.48;;;22.60;99.90;;;;;;5139023;28;20234;-77
2023/08/21 06:00:47;;;;;;;10.87;9.77;;;22.70;99.90;;;;;;5136194;28;20220;-77
2023/08/21 06:03:13;;;;;;;11.67;10.27;;;22.70;99.90;;;;;;5139471;28;20193;-78
2023/08/21 06:05:39;;;;;;;11.50;10.40;;;22.80;99.90;;;;;;5138889;28;20173;-77
2023/08/21 06:08:08;;;;;;;11.03;9.93;;;22.80;99.90;;;;;;5130939;28;20269;-77
2023/08/21 06:10:34;;;;;;;14.50;10.53;;;22.90;99.90;;;;;;5119865;28;20249;-77
2023/08/21 06:13:00;;;;;;;11.00;10.00;;;23.00;99.90;;;;;;5127136;28;20188;-76
2023/08/21 06:15:26;;;;;;;11.43;10.23;;;23.00;99.90;;;;;;5130677;28;20185;-77
2023/08/21 06:17:51;;;;;;;9.83;8.93;;;23.10;99.90;;;;;;5130925;28;20170;-77
2023/08/21 06:20:19;;;;;;;10.87;9.87;;;23.20;99.90;;;;;;5132199;28;20208;-78
2023/08/21 06:22:45;;;;;;;10.93;9.43;;;23.20;99.90;;;;;;5126808;28;20217;-78
2023/08/21 06:25:11;;;;;;;11.20;9.40;;;23.20;99.90;;;;;;5117058;28;20314;-76
2023/08/21 06:27:36;;;;;;;10.53;9.53;;;23.30;99.90;;;;;;5097717;28;20555;-76
2023/08/21 06:30:02;;;;;;;11.53;10.33;;;23.40;99.90;;;;;;5115831;28;20178;-77
2023/08/21 06:32:28;;;;;;;12.03;10.10;;;23.40;99.90;;;;;;5114707;28;20648;-77
2023/08/21 06:34:54;;;;;;;10.90;9.40;;;23.40;99.90;;;;;;5115437;28;20186;-78
2023/08/21 06:37:20;;;;;;;10.88;9.65;;;23.50;99.90;;;;;;5114581;28;20185;-76
2023/08/21 06:39:46;;;;;;;9.98;9.02;;;23.50;99.90;;;;;;5114581;28;20170;-77
2023/08/21 06:42:12;;;;;;;12.13;9.57;;;23.60;99.90;;;;;;5114480;28;20189;-78
2023/08/21 06:44:37;;;;;;;10.35;9.45;;;23.60;99.90;;;;;;5114463;28;20213;-78
2023/08/21 06:47:03;;;;;;;10.02;9.05;;;23.70;99.90;;;;;;5123807;28;20178;-77
2023/08/21 06:49:29;;;;;;;10.15;9.15;;;23.80;99.90;;;;;;5131285;28;20224;-78
2023/08/21 06:51:55;;;;;;;9.90;8.90;;;23.80;99.90;;;;;;5120411;28;20186;-77
2023/08/21 06:54:20;;;;;;;10.77;9.37;;;23.90;99.90;;;;;;5116113;28;20173;-78
2023/08/21 06:56:46;;;;;;;12.02;9.07;;;24.00;99.90;;;;;;5114182;28;20265;-79
2023/08/21 06:59:12;;;;;;;9.77;8.95;;;24.00;99.90;;;;;;5114692;28;20174;-78
2023/08/21 07:01:38;;;;;;;9.60;8.60;;;24.00;99.90;;;;;;5125339;28;20198;-77
2023/08/21 07:04:04;;;;;;;10.07;9.18;;;24.20;99.90;;;;;;5115692;28;20210;-77
2023/08/21 07:06:31;;;;;;;10.52;9.63;;;24.30;99.90;;;;;;5097238;28;20178;-76
2023/08/21 07:08:56;;;;;;;10.45;9.25;;;24.40;99.90;;;;;;5114315;28;20206;-77
2023/08/21 07:11:22;;;;;;;13.85;8.75;;;24.40;99.90;;;;;;5114224;28;20541;-76
2023/08/21 07:13:48;;;;;;;9.93;8.93;;;24.50;99.90;;;;;;5113906;28;20220;-78
2023/08/21 07:16:14;;;;;;;9.32;8.60;;;24.60;99.90;;;;;;5095796;28;20192;-77
2023/08/21 07:18:40;;;;;;;10.38;9.30;;;24.70;99.90;;;;;;5114407;28;20610;-77
2023/08/21 07:21:06;;;;;;;9.98;8.98;;;24.80;99.90;;;;;;5113731;28;20262;-76
2023/08/21 07:23:32;;;;;;;10.30;9.40;;;24.90;99.90;;;;;;5114567;28;20296;-78
2023/08/21 07:25:59;;;;;;;9.68;8.70;;;24.90;99.90;;;;;;5114188;28;20182;-79
2023/08/21 07:28:25;;;;;;;10.52;9.52;;;24.90;99.90;;;;;;5114657;28;20185;-76
2023/08/21 07:30:56;;;;;;;9.85;8.95;;;25.10;99.90;;;;;;5114689;28;20169;-77
2023/08/21 07:33:22;;;;;;;9.23;8.15;;;25.20;99.90;;;;;;5095928;28;20539;-76
2023/08/21 07:35:56;;;;;;;9.60;8.63;;;25.30;99.90;;;;;;5114751;28;20247;-77
2023/08/21 07:38:22;;;;;;;10.18;9.18;;;25.30;99.90;;;;;;5114397;28;20219;-79
2023/08/21 07:40:47;;;;;;;9.95;8.95;;;25.50;99.90;;;;;;5114262;28;20209;-78
2023/08/21 07:43:13;;;;;;;10.10;9.13;;;25.50;99.90;;;;;;5115147;28;20174;-77
2023/08/21 07:45:39;;;;;;;9.50;8.65;;;25.60;99.90;;;;;;5126994;28;20177;-76
2023/08/21 07:48:05;;;;;;;9.80;8.82;;;25.60;99.90;;;;;;5119175;28;20178;-77
2023/08/21 07:50:30;;;;;;;9.05;8.23;;;25.80;99.90;;;;;;5124613;28;20186;-79
2023/08/21 07:52:56;;;;;;;8.85;8.15;;;25.80;99.90;;;;;;5116282;28;20177;-76
2023/08/21 07:55:22;;;;;;;9.32;8.45;;;26.00;99.90;;;;;;5114412;28;20181;-77
2023/08/21 07:57:48;;;;;;;8.73;7.82;;;26.00;99.90;;;;;;5115812;28;20550;-78
2023/08/21 08:00:14;;;;;;;9.98;8.80;;;26.10;99.90;;;;;;5118201;28;20662;-77
2023/08/21 08:02:40;;;;;;;8.75;7.95;;;26.30;99.90;;;;;;5120822;28;20264;-77
2023/08/21 08:05:06;;;;;;;9.75;8.88;;;26.30;99.90;;;;;;5128642;28;20210;-77
2023/08/21 08:07:32;;;;;;;9.55;8.60;;;26.40;99.90;;;;;;5117466;28;20204;-78
2023/08/21 08:09:57;;;;;;;9.05;8.35;;;26.50;99.90;;;;;;5113741;28;20178;-77
2023/08/21 08:12:24;;;;;;;11.50;8.90;;;26.60;99.90;;;;;;5113710;28;20585;-77
2023/08/21 08:14:50;;;;;;;9.30;8.50;;;26.60;99.90;;;;;;5114209;28;20178;-79
2023/08/21 08:17:16;;;;;;;9.73;8.20;;;26.70;99.90;;;;;;5117799;28;20174;-78
2023/08/21 08:19:41;;;;;;;9.52;8.50;;;26.70;99.90;;;;;;5118159;28;20178;-79
2023/08/21 08:22:07;;;;;;;8.65;7.95;;;26.80;99.90;;;;;;5117439;28;20224;-78
2023/08/21 08:24:33;;;;;;;9.13;8.32;;;26.90;99.90;;;;;;5117448;28;20217;-79
2023/08/21 08:26:59;;;;;;;8.07;7.38;;;26.90;99.90;;;;;;5134341;28;20182;-77
2023/08/21 08:29:25;;;;;;;8.93;8.02;;;27.00;99.90;;;;;;5122334;28;20569;-77
2023/08/21 08:31:51;;;;;;;8.35;7.65;;;27.00;99.90;;;;;;5117787;28;20519;-77
2023/08/21 08:34:20;;;;;;;8.25;7.55;;;27.00;99.90;;;;;;5117647;28;20178;-78
2023/08/21 08:36:46;;;;;;;8.43;7.22;;;27.10;99.90;;;;;;5117770;28;20170;-79
2023/08/21 08:39:11;;;;;;;7.85;7.25;;;27.10;99.90;;;;;;5140608;28;20234;-78
2023/08/21 08:41:50;;;;;;;8.48;7.78;;;27.20;99.90;;;;;;5134963;28;20166;-77
2023/08/21 08:44:17;;;;;;;8.25;7.55;;;27.30;99.90;;;;;;5116849;28;20230;-77
2023/08/21 08:46:43;;;;;;;8.50;7.80;;;27.30;99.90;;;;;;5117435;28;20189;-79
2023/08/21 08:49:09;;;;;;;8.57;7.65;;;27.40;99.90;;;;;;5117397;28;20182;-78
2023/08/21 08:51:37;;;;;;;10.60;7.65;;;27.50;99.90;;;;;;5117071;28;20252;-78
2023/08/21 08:54:04;;;;;;;12.65;8.93;;;27.60;99.90;;;;;;5117744;28;20173;-76
2023/08/21 08:56:29;;;;;;;10.73;8.38;;;27.60;99.90;;;;;;5117441;28;20162;-76
2023/08/21 08:58:55;;;;;;;10.02;8.55;;;27.70;99.90;;;;;;5117367;28;20680;-78
2023/08/21 09:01:21;;;;;;;11.35;8.80;;;27.70;99.90;;;;;;5116455;28;20173;-78
2023/08/21 09:03:49;;;;;;;9.38;8.43;;;27.80;99.90;;;;;;5116853;28;20729;-75
2023/08/21 09:06:16;;;;;;;9.27;8.38;;;27.90;99.90;;;;;;5117630;28;20588;-77
2023/08/21 09:08:55;;;;;;;9.20;8.25;;;27.80;99.90;;;;;;5124691;28;20553;-77
2023/08/21 09:11:21;;;;;;;9.13;7.60;;;27.90;99.90;;;;;;5118112;28;20193;-77
2023/08/21 09:13:50;;;;;;;9.75;8.85;;;27.90;99.90;;;;;;5116191;28;20538;-76
2023/08/21 09:16:20;;;;;;;9.05;8.15;;;28.00;99.90;;;;;;5116452;28;20178;-78
2023/08/21 09:18:50;;;;;;;15.98;8.10;;;28.10;99.90;;;;;;5117779;28;20158;-78
2023/08/21 09:21:21;;;;;;;10.38;7.93;;;28.10;99.90;;;;;;5120926;28;20684;-78
2023/08/21 09:23:48;;;;;;;9.50;8.13;;;28.10;99.90;;;;;;5128476;28;20544;-79
2023/08/21 09:26:22;;;;;;;7.93;7.20;;;28.30;99.90;;;;;;5115034;28;20174;-79
2023/08/21 09:28:52;;;;;;;7.35;6.60;;;28.30;99.90;;;;;;5115382;28;20513;-78
2023/08/21 09:31:31;;;;;;;9.55;7.18;;;28.40;99.90;;;;;;5116460;28;20201;-79
2023/08/21 09:34:04;;;;;;;9.27;7.90;;;28.50;99.90;;;;;;5116095;28;20162;-77
2023/08/21 09:36:31;;;;;;;8.10;6.88;;;28.50;99.90;;;;;;5116263;28;20287;-76
2023/08/21 09:38:57;;;;;;;8.88;7.22;;;28.60;99.90;;;;;;5116131;28;20720;-77
2023/08/21 09:41:25;;;;;;;8.93;7.15;;;28.60;99.90;;;;;;5097438;28;20305;-78
2023/08/21 09:43:51;;;;;;;7.25;6.60;;;28.50;99.90;;;;;;5115749;28;20209;-76
2023/08/21 09:46:24;;;;;;;7.95;7.25;;;28.60;99.90;;;;;;5116544;28;20184;-79
2023/08/21 09:48:51;;;;;;;7.88;7.15;;;28.70;99.90;;;;;;5117136;28;20174;-77
2023/08/21 09:51:17;;;;;;;7.82;6.07;;;28.80;99.90;;;;;;5123768;28;20185;-76
2023/08/21 09:53:43;;;;;;;8.63;6.93;;;28.80;99.90;;;;;;5128006;28;20174;-78
2023/08/21 09:56:10;;;;;;;10.65;6.97;;;28.90;99.90;;;;;;5116005;28;20178;-77
2023/08/21 09:58:36;;;;;;;7.78;6.60;;;28.90;99.90;;;;;;5096897;28;20182;-76
2023/08/21 10:01:13;;;;;;;7.32;6.63;;;28.90;99.90;;;;;;5115808;28;20270;-77
2023/08/21 10:03:40;;;;;;;6.88;6.15;;;28.90;99.90;;;;;;5116768;28;20197;-77
2023/08/21 10:06:08;;;;;;;7.38;6.43;;;28.90;99.90;;;;;;5134088;28;20172;-79
2023/08/21 10:08:40;;;;;;;7.28;6.07;;;28.90;99.90;;;;;;5117088;28;20174;-78
2023/08/21 10:11:08;;;;;;;7.18;6.45;;;28.90;99.90;;;;;;5119677;28;20223;-78
2023/08/21 10:13:36;;;;;;;7.30;6.68;;;28.90;99.90;;;;;;5118779;28;20174;-79
2023/08/21 10:16:02;;;;;;;8.68;6.28;;;29.00;99.90;;;;;;5123709;28;20189;-78
2023/08/21 10:18:33;;;;;;;6.60;6.00;;;29.00;99.90;;;;;;5133307;28;20553;-79
2023/08/21 10:21:21;;;;;;;6.60;6.10;;;29.20;99.90;;;;;;5115784;28;20274;-79
2023/08/21 10:23:51;;;;;;;6.80;6.28;;;29.30;99.90;;;;;;5115239;28;20228;-79
2023/08/21 10:26:22;;;;;;;6.60;6.03;;;29.40;99.90;;;;;;5115468;28;20185;-81
2023/08/21 10:29:06;;;;;;;7.22;6.53;;;29.40;99.90;;;;;;5115810;28;20188;-79
2023/08/21 10:31:40;;;;;;;7.35;6.75;;;29.50;99.90;;;;;;5120076;28;20165;-76
2023/08/21 10:34:08;;;;;;;7.45;6.63;;;29.60;99.90;;;;;;5126093;28;20184;-77
2023/08/21 10:36:59;;;;;;;7.30;6.70;;;29.60;99.90;;;;;;5114858;28;20182;-75
2023/08/21 10:39:26;;;;;;;6.93;6.25;;;29.60;99.90;;;;;;5115029;28;20640;-78
2023/08/21 10:41:57;;;;;;;7.22;6.50;;;29.60;99.90;;;;;;5114988;28;20629;-78
2023/08/21 10:44:41;;;;;;;7.85;6.50;;;29.60;99.90;;;;;;5114556;28;20205;-76
2023/08/21 10:47:26;;;;;;;7.22;6.63;;;29.60;99.90;;;;;;5114212;28;20260;-78
2023/08/21 10:49:59;;;;;;;7.47;6.78;;;29.70;99.90;;;;;;5114506;28;20170;-77
2023/08/21 10:52:30;;;;;;;9.63;7.35;;;29.70;99.90;;;;;;5121518;28;20166;-79
2023/08/21 10:54:59;;;;;;;6.25;5.63;;;29.80;99.90;;;;;;5123173;28;20193;-78
2023/08/21 10:57:26;;;;;;;6.72;6.13;;;29.80;99.90;;;;;;5116174;28;20177;-77
2023/08/21 11:00:04;;;;;;;6.68;6.13;;;29.80;99.90;;;;;;5117684;28;20178;-80
2023/08/21 11:02:32;;;;;;;6.80;5.55;;;29.70;99.40;;;;;;5095982;28;20190;-78
2023/08/21 11:05:00;;;;;;;7.28;5.78;;;29.70;99.50;;;;;;5114332;28;20676;-77
2023/08/21 11:07:26;;;;;;;6.70;5.88;;;29.80;99.50;;;;;;5114247;28;20235;-79
2023/08/21 11:09:52;;;;;;;6.53;5.93;;;29.90;99.80;;;;;;5113886;28;20201;-78
2023/08/21 11:12:21;;;;;;;6.70;6.10;;;30.00;99.80;;;;;;5113780;28;20216;-80
2023/08/21 11:14:47;;;;;;;6.25;5.75;;;30.00;99.10;;;;;;5114988;28;20721;-80
2023/08/21 11:17:14;;;;;;;5.78;5.47;;;30.00;98.70;;;;;;5117781;28;20234;-78
2023/08/21 11:19:41;;;;;;;5.70;5.30;;;30.00;99.30;;;;;;5116110;28;20239;-80
2023/08/21 11:22:07;;;;;;;5.63;5.13;;;30.10;98.20;;;;;;5114932;28;20583;-79
2023/08/21 11:24:45;;;;;;;5.40;5.00;;;30.20;97.20;;;;;;5114231;28;20205;-79
2023/08/21 11:27:16;;;;;;;6.22;5.72;;;30.20;97.20;;;;;;5114097;28;20664;-80
2023/08/21 11:29:44;;;;;;;5.88;5.45;;;30.30;96.90;;;;;;5114382;28;20190;-79
2023/08/21 11:32:21;;;;;;;7.35;5.78;;;30.40;96.70;;;;;;5114322;28;20181;-80
2023/08/21 11:35:05;;;;;;;5.85;5.45;;;30.30;96.50;;;;;;5114124;28;20634;-79
2023/08/21 11:37:31;;;;;;;6.07;5.57;;;30.30;96.40;;;;;;5115025;28;20571;-80
2023/08/21 11:39:58;;;;;;;5.72;5.32;;;30.30;96.20;;;;;;5129562;28;20170;-80
2023/08/21 11:42:33;;;;;;;5.43;4.93;;;30.40;95.80;;;;;;5120695;28;20287;-80
2023/08/21 11:45:00;;;;;;;5.63;5.25;;;30.50;95.60;;;;;;5132614;28;20738;-79
2023/08/21 11:47:34;;;;;;;5.35;4.95;;;30.60;95.80;;;;;;5114465;28;20186;-80
2023/08/21 11:50:05;;;;;;;6.15;5.60;;;30.50;96.00;;;;;;5096268;28;20217;-79
2023/08/21 11:52:31;;;;;;;5.85;5.45;;;30.50;96.80;;;;;;5118448;28;20185;-79
2023/08/21 11:54:58;;;;;;;5.95;5.45;;;30.50;97.00;;;;;;5124835;28;20177;-81
2023/08/21 11:57:24;;;;;;;6.40;5.63;;;30.50;97.40;;;;;;5134661;28;20227;-79
2023/08/21 11:59:58;;;;;;;5.70;5.20;;;30.40;96.80;;;;;;5118135;28;20249;-79
2023/08/21 12:02:26;;;;;;;5.03;4.68;;;30.50;97.10;;;;;;5117886;28;20231;-79
2023/08/21 12:05:05;;;;;;;5.63;5.25;;;30.50;96.40;;;;;;5117962;28;20296;-80
2023/08/21 12:07:33;;;;;;;5.30;4.90;;;30.40;96.50;;;;;;5117958;28;20542;-81
2023/08/21 12:09:59;;;;;;;5.40;5.00;;;30.40;96.50;;;;;;5117884;28;20224;-81
2023/08/21 12:12:25;;;;;;;6.05;5.40;;;30.40;96.80;;;;;;5117954;28;20648;-78
2023/08/21 12:14:51;;;;;;;5.63;5.22;;;30.40;97.60;;;;;;5117699;28;20969;-79
2023/08/21 12:17:17;;;;;;;5.93;5.43;;;30.50;97.00;;;;;;5117794;28;20193;-78
2023/08/21 12:19:43;;;;;;;5.15;4.75;;;30.50;97.20;;;;;;5117528;28;20229;-78
2023/08/21 12:22:09;;;;;;;6.72;6.07;;;30.60;96.70;;;;;;5116969;28;20213;-78
2023/08/21 12:24:36;;;;;;;6.63;6.03;;;30.60;96.80;;;;;;5117364;28;20202;-78
2023/08/21 12:27:03;;;;;;;5.40;5.00;;;30.60;96.20;;;;;;5120648;28;20181;-78
2023/08/21 12:29:29;;;;;;;5.80;5.38;;;30.60;96.60;;;;;;5121987;28;20174;-78
2023/08/21 12:31:55;;;;;;;5.38;5.07;;;30.70;95.90;;;;;;5121284;28;20170;-78
2023/08/21 12:34:21;;;;;;;5.63;5.25;;;30.80;95.10;;;;;;5122600;28;20182;-81
2023/08/21 12:36:47;;;;;;;6.07;5.25;;;30.80;94.80;;;;;;5131442;28;20547;-80